createdAt,value
2022-08-02T00:00:38.023Z,0.60
2022-08-02T00:03:04.746Z,0.57
2022-08-02T00:05:31.590Z,0.60
2022-08-02T00:07:58.383Z,0.50
2022-08-02T00:10:25.366Z,0.77
2022-08-02T00:12:53.192Z,0.60
2022-08-02T00:15:20.493Z,0.68
2022-08-02T00:17:48.603Z,0.93
2022-08-02T00:20:16.482Z,0.50
2022-08-02T00:22:43.536Z,0.60
2022-08-02T00:25:10.968Z,0.85
2022-08-02T00:27:37.840Z,0.80
2022-08-02T00:30:05.804Z,0.90
2022-08-02T00:32:32.540Z,0.75
2022-08-02T00:34:59.300Z,0.80
2022-08-02T00:37:26.070Z,0.68
2022-08-02T00:39:52.839Z,0.75
2022-08-02T00:42:20.237Z,1.00
2022-08-02T00:44:46.958Z,0.70
2022-08-02T00:47:19.007Z,1.88
2022-08-02T00:49:47.137Z,0.90
2022-08-02T00:52:14.551Z,0.80
2022-08-02T00:54:41.701Z,0.90
2022-08-02T00:57:08.775Z,0.90
2022-08-02T00:59:35.623Z,0.80
2022-08-02T01:02:02.486Z,0.85
2022-08-02T01:04:31.461Z,0.70
2022-08-02T01:07:13.348Z,1.05
2022-08-02T01:09:45.826Z,1.17
2022-08-02T01:12:13.922Z,0.70
2022-08-02T01:14:44.673Z,0.90
2022-08-02T01:17:34.789Z,0.75
2022-08-02T01:20:35.524Z,0.60
2022-08-02T01:23:42.727Z,0.80
2022-08-02T01:26:45.112Z,1.70
2022-08-02T01:29:37.521Z,0.70
2022-08-02T01:32:15.297Z,0.85
2022-08-02T01:35:11.752Z,0.85
2022-08-02T01:37:58.713Z,0.82
2022-08-02T01:40:31.600Z,0.90
2022-08-02T01:43:00.698Z,0.77
2022-08-02T01:45:39.895Z,0.50
2022-08-02T01:48:09.985Z,0.75
2022-08-02T01:50:38.577Z,0.77
2022-08-02T01:53:10.217Z,0.75
2022-08-02T01:55:57.874Z,2.20
2022-08-02T01:58:31.521Z,0.68
2022-08-02T02:01:00.971Z,0.90
2022-08-02T02:03:31.944Z,0.70
2022-08-02T02:06:05.276Z,1.13
2022-08-02T02:08:38.578Z,0.80
2022-08-02T02:12:11.698Z,0.90
2022-08-02T02:13:58.939Z,0.63
2022-08-02T02:16:28.253Z,0.65
2022-08-02T02:18:55.297Z,0.80
2022-08-02T02:21:22.529Z,0.70
2022-08-02T02:23:50.724Z,0.70
2022-08-02T02:26:31.200Z,0.70
2022-08-02T02:29:04.121Z,0.95
2022-08-02T02:31:38.615Z,0.70
2022-08-02T02:34:13.612Z,0.60
2022-08-02T02:36:49.617Z,0.60
2022-08-02T02:39:22.691Z,0.60
2022-08-02T02:41:53.338Z,0.70
2022-08-02T02:44:22.589Z,0.80
2022-08-02T02:46:54.450Z,1.20
2022-08-02T02:49:23.560Z,0.50
2022-08-02T02:51:52.296Z,0.70
2022-08-02T02:54:33.740Z,0.73
2022-08-02T02:57:06.037Z,0.70
2022-08-02T02:59:49.162Z,0.73
2022-08-02T03:02:17.864Z,1.15
2022-08-02T03:04:56.120Z,0.70
2022-08-02T03:07:26.605Z,0.50
2022-08-02T03:09:54.234Z,0.70
2022-08-02T03:12:31.961Z,0.63
2022-08-02T03:15:07.670Z,0.80
2022-08-02T03:18:00.863Z,1.00
2022-08-02T03:20:27.603Z,0.80
2022-08-02T03:22:54.453Z,0.77
2022-08-02T03:25:21.212Z,0.75
2022-08-02T03:27:48.040Z,0.63
2022-08-02T03:30:15.784Z,0.68
2022-08-02T03:32:47.286Z,0.77
2022-08-02T03:35:23.280Z,1.42
2022-08-02T03:37:55.762Z,0.60
2022-08-02T03:40:24.770Z,0.82
2022-08-02T03:42:53.570Z,0.70
2022-08-02T03:45:20.796Z,0.90
2022-08-02T03:47:48.033Z,0.73
2022-08-02T03:50:15.022Z,0.60
2022-08-02T03:52:44.194Z,0.60
2022-08-02T03:55:14.647Z,0.70
2022-08-02T03:57:42.848Z,0.80
2022-08-02T04:00:19.133Z,0.88
2022-08-02T04:02:45.966Z,0.70
2022-08-02T04:05:13.388Z,0.82
2022-08-02T04:08:36.409Z,0.70
2022-08-02T04:10:27.428Z,0.75
2022-08-02T04:12:58.394Z,0.95
2022-08-02T04:15:25.306Z,0.73
2022-08-02T04:17:57.426Z,1.00
2022-08-02T04:20:31.326Z,1.30
2022-08-02T04:23:07.472Z,0.98
2022-08-02T04:25:40.206Z,0.90
2022-08-02T04:28:17.311Z,0.90
2022-08-02T04:30:50.128Z,2.03
2022-08-02T04:33:18.288Z,1.00
2022-08-02T04:35:45.654Z,0.70
2022-08-02T04:38:16.400Z,1.08
2022-08-02T04:40:55.649Z,0.90
2022-08-02T04:43:23.919Z,1.05
2022-08-02T04:45:54.185Z,0.90
2022-08-02T04:48:22.323Z,1.05
2022-08-02T04:50:49.429Z,1.15
2022-08-02T04:53:16.688Z,0.90
2022-08-02T04:55:43.477Z,1.02
2022-08-02T04:58:37.379Z,1.27
2022-08-02T05:00:57.387Z,1.00
2022-08-02T05:03:24.240Z,0.90
2022-08-02T05:05:51.059Z,1.23
2022-08-02T05:08:17.794Z,1.08
2022-08-02T05:10:44.558Z,1.40
2022-08-02T05:13:11.316Z,1.08
2022-08-02T05:15:38.371Z,1.05
2022-08-02T05:18:05.525Z,0.98
2022-08-02T05:20:32.499Z,1.83
2022-08-02T05:22:59.311Z,1.23
2022-08-02T05:25:26.252Z,1.10
2022-08-02T05:27:53.015Z,1.25
2022-08-02T05:30:20.954Z,1.23
2022-08-02T05:32:52.607Z,1.10
2022-08-02T05:35:22.082Z,0.98
2022-08-02T05:37:52.880Z,1.30
2022-08-02T05:40:24.709Z,1.17
2022-08-02T05:42:53.221Z,1.52
2022-08-02T05:45:19.973Z,1.48
2022-08-02T05:47:46.729Z,1.60
2022-08-02T05:50:13.532Z,1.55
2022-08-02T05:52:49.271Z,1.25
2022-08-02T05:55:34.508Z,1.60
2022-08-02T05:58:28.623Z,1.50
2022-08-02T06:00:59.131Z,1.67
2022-08-02T06:03:39.032Z,1.40
2022-08-02T06:06:17.736Z,1.33
2022-08-02T06:08:48.449Z,1.55
2022-08-02T06:11:23.556Z,1.73
2022-08-02T06:13:52.608Z,1.60
2022-08-02T06:16:31.857Z,1.80
2022-08-02T06:19:01.269Z,1.58
2022-08-02T06:22:35.614Z,1.60
2022-08-02T06:24:20.236Z,2.17
2022-08-02T06:26:52.885Z,2.55
2022-08-02T06:29:23.467Z,2.13
2022-08-02T06:31:53.852Z,2.20
2022-08-02T06:34:20.966Z,2.05
2022-08-02T06:37:35.521Z,2.50
2022-08-02T06:40:24.138Z,2.15
2022-08-02T06:43:50.262Z,2.33
2022-08-02T06:46:37.673Z,2.60
2022-08-02T06:49:04.843Z,2.42
2022-08-02T06:51:32.789Z,3.17
2022-08-02T06:53:59.627Z,2.92
2022-08-02T06:56:26.708Z,3.10
2022-08-02T06:58:53.464Z,2.92
2022-08-02T07:01:20.510Z,3.00
2022-08-02T07:03:47.587Z,3.10
2022-08-02T07:06:14.375Z,3.10
2022-08-02T07:08:41.254Z,3.03
2022-08-02T07:11:09.639Z,2.97
2022-08-02T07:13:39.880Z,4.05
2022-08-02T07:16:07.562Z,3.58
2022-08-02T07:18:35.541Z,3.20
2022-08-02T07:21:06.014Z,3.40
2022-08-02T07:23:36.654Z,2.35
2022-08-02T07:26:05.374Z,4.25
2022-08-02T07:28:32.887Z,3.08
2022-08-02T07:30:59.726Z,3.70
2022-08-02T07:33:38.863Z,4.15
2022-08-02T07:36:09.796Z,3.70
2022-08-02T07:38:43.752Z,3.20
2022-08-02T07:41:12.339Z,3.95
2022-08-02T07:43:39.100Z,3.78
2022-08-02T07:46:05.918Z,4.30
2022-08-02T07:48:32.666Z,5.05
2022-08-02T07:50:59.529Z,4.70
2022-08-02T07:53:50.230Z,5.35
2022-08-02T07:56:13.330Z,4.88
2022-08-02T07:58:43.096Z,5.47
2022-08-02T08:01:10.680Z,5.75
2022-08-02T08:03:37.497Z,5.53
2022-08-02T08:06:04.400Z,5.30
2022-08-02T08:08:33.901Z,5.50
2022-08-02T08:11:00.871Z,5.05
2022-08-02T08:13:30.214Z,4.45
2022-08-02T08:15:56.985Z,3.80
2022-08-02T08:18:23.804Z,3.65
2022-08-02T08:20:52.096Z,3.47
2022-08-02T08:23:19.447Z,3.58
2022-08-02T08:25:46.285Z,3.20
2022-08-02T08:28:13.408Z,2.80
2022-08-02T08:30:42.574Z,2.40
2022-08-02T08:33:09.648Z,2.40
2022-08-02T08:35:36.497Z,3.25
2022-08-02T08:38:07.408Z,2.50
2022-08-02T08:40:36.984Z,1.90
2022-08-02T08:43:05.191Z,2.00
2022-08-02T08:45:32.248Z,2.00
2022-08-02T08:48:25.776Z,1.83
2022-08-02T08:51:07.004Z,1.45
2022-08-02T08:53:42.277Z,1.95
2022-08-02T08:56:16.034Z,1.90
2022-08-02T08:58:49.716Z,1.63
2022-08-02T09:01:17.195Z,2.22
2022-08-02T09:03:44.858Z,1.80
2022-08-02T09:06:11.681Z,2.70
2022-08-02T09:08:38.424Z,2.50
2022-08-02T09:11:19.113Z,2.40
2022-08-02T09:13:59.116Z,2.42
2022-08-02T09:16:37.440Z,2.90
2022-08-02T09:19:22.652Z,3.20
2022-08-02T09:22:11.850Z,3.17
2022-08-02T09:24:51.376Z,3.75
2022-08-02T09:27:21.949Z,4.28
2022-08-02T09:30:12.748Z,4.88
2022-08-02T09:32:48.391Z,4.07
2022-08-02T09:36:07.327Z,5.20
2022-08-02T09:38:23.052Z,5.15
2022-08-02T09:40:52.999Z,4.75
2022-08-02T09:43:20.881Z,4.60
2022-08-02T09:45:47.705Z,4.30
2022-08-02T09:48:14.623Z,4.95
2022-08-02T09:50:45.059Z,4.57
2022-08-02T09:53:13.894Z,4.00
2022-08-02T09:55:42.512Z,4.60
2022-08-02T09:58:27.870Z,4.40
2022-08-02T10:00:57.380Z,5.20
2022-08-02T10:03:35.095Z,5.15
2022-08-02T10:06:05.019Z,4.82
2022-08-02T10:08:33.960Z,4.88
2022-08-02T10:11:02.689Z,4.80
2022-08-02T10:13:36.810Z,3.75
2022-08-02T10:16:07.251Z,3.20
2022-08-02T10:18:39.904Z,3.25
2022-08-02T10:21:14.388Z,4.13
2022-08-02T10:23:50.205Z,3.70
2022-08-02T10:26:20.781Z,3.95
2022-08-02T10:28:50.577Z,3.38
2022-08-02T10:31:25.641Z,3.35
2022-08-02T10:33:55.887Z,2.75
2022-08-02T10:36:27.048Z,2.38
2022-08-02T10:38:56.103Z,2.83
2022-08-02T10:41:43.983Z,2.92
2022-08-02T10:44:24.530Z,1.95
2022-08-02T10:46:52.929Z,2.10
2022-08-02T10:49:39.735Z,1.95
2022-08-02T10:52:09.212Z,1.73
2022-08-02T10:54:41.248Z,1.67
2022-08-02T10:57:30.225Z,1.40
2022-08-02T11:00:01.732Z,1.80
2022-08-02T11:02:35.046Z,1.38
2022-08-02T11:05:15.882Z,1.33
2022-08-02T11:07:49.244Z,1.30
2022-08-02T11:10:38.199Z,1.70
2022-08-02T11:13:22.018Z,1.67
2022-08-02T11:16:10.686Z,1.58
2022-08-02T11:18:50.922Z,1.08
2022-08-02T11:21:23.776Z,1.33
2022-08-02T11:23:52.309Z,0.98
2022-08-02T11:26:31.222Z,1.40
2022-08-02T11:29:01.404Z,1.20
2022-08-02T11:31:37.888Z,1.05
2022-08-02T11:34:09.537Z,1.08
2022-08-02T11:36:52.070Z,1.10
2022-08-02T11:39:23.945Z,1.20
2022-08-02T11:42:00.986Z,1.10
2022-08-02T11:44:56.068Z,0.98
2022-08-02T11:47:23.915Z,1.00
2022-08-02T11:49:50.634Z,1.05
2022-08-02T11:52:17.629Z,0.88
2022-08-02T11:54:44.652Z,1.20
2022-08-02T11:57:20.886Z,1.00
2022-08-02T11:59:58.028Z,1.02
2022-08-02T12:02:35.708Z,0.82
2022-08-02T12:05:09.185Z,1.00
2022-08-02T12:07:46.163Z,0.82
2022-08-02T12:10:34.941Z,0.70
2022-08-02T12:13:02.112Z,0.80
2022-08-02T12:15:33.721Z,0.73
2022-08-02T12:18:20.043Z,0.80
2022-08-02T12:20:47.096Z,1.20
2022-08-02T12:23:14.057Z,1.27
2022-08-02T12:25:41.148Z,1.88
2022-08-02T12:28:23.104Z,1.60
2022-08-02T12:31:14.364Z,0.93
2022-08-02T12:33:54.160Z,1.40
2022-08-02T12:36:29.781Z,1.70
2022-08-02T12:39:01.819Z,1.98
2022-08-02T12:41:32.459Z,1.48
2022-08-02T12:44:00.547Z,1.42
2022-08-02T12:46:27.717Z,1.25
2022-08-02T12:49:16.832Z,1.30
2022-08-02T12:51:54.553Z,1.33
2022-08-02T12:54:39.573Z,1.00
2022-08-02T12:57:29.404Z,1.38
2022-08-02T12:59:56.205Z,2.55
2022-08-02T13:02:22.948Z,1.50
2022-08-02T13:04:50.974Z,1.42
2022-08-02T13:07:19.023Z,1.17
2022-08-02T13:09:47.621Z,1.30
2022-08-02T13:12:14.618Z,1.00
2022-08-02T13:14:42.965Z,1.08
2022-08-02T13:17:11.791Z,0.80
2022-08-02T13:19:39.251Z,0.90
2022-08-02T13:22:08.634Z,0.90
2022-08-02T13:24:55.732Z,0.88
2022-08-02T13:27:26.409Z,0.90
2022-08-02T13:29:56.234Z,0.63
2022-08-02T13:32:24.543Z,0.82
2022-08-02T13:34:51.779Z,0.93
2022-08-02T13:37:18.959Z,0.80
2022-08-02T13:39:55.607Z,0.75
2022-08-02T13:42:35.634Z,0.80
2022-08-02T13:45:11.741Z,1.00
2022-08-02T13:48:03.590Z,1.00
2022-08-02T13:50:30.178Z,0.88
2022-08-02T13:52:57.001Z,0.80
2022-08-02T13:55:24.255Z,0.90
2022-08-02T13:57:53.355Z,0.80
2022-08-02T14:00:34.989Z,0.90
2022-08-02T14:03:05.214Z,0.85
2022-08-02T14:05:38.584Z,0.77
2022-08-02T14:08:16.563Z,0.47
2022-08-02T14:10:44.853Z,0.95
2022-08-02T14:13:11.608Z,1.00
2022-08-02T14:15:38.495Z,1.27
2022-08-02T14:18:05.540Z,1.40
2022-08-02T14:20:32.299Z,1.20
2022-08-02T14:22:59.119Z,1.10
2022-08-02T14:25:26.088Z,0.90
2022-08-02T14:27:53.118Z,0.90
2022-08-02T14:30:19.942Z,0.90
2022-08-02T14:32:46.701Z,0.95
2022-08-02T14:35:13.449Z,0.70
2022-08-02T14:37:40.284Z,1.55
2022-08-02T14:40:07.879Z,0.80
2022-08-02T14:42:54.698Z,1.10
2022-08-02T14:45:22.249Z,0.70
2022-08-02T14:47:49.480Z,0.68
2022-08-02T14:50:18.153Z,0.88
2022-08-02T14:52:46.575Z,0.95
2022-08-02T14:55:17.647Z,0.90
2022-08-02T14:57:44.407Z,0.80
2022-08-02T15:00:12.095Z,0.73
2022-08-02T15:02:38.837Z,0.95
2022-08-02T15:05:05.900Z,1.17
2022-08-02T15:07:32.665Z,0.77
2022-08-02T15:09:59.389Z,0.90
2022-08-02T15:12:26.143Z,0.75
2022-08-02T15:14:53.401Z,0.60
2022-08-02T15:17:20.288Z,0.68
2022-08-02T15:19:57.304Z,0.50
2022-08-02T15:22:27.497Z,0.63
2022-08-02T15:24:55.780Z,0.60
2022-08-02T15:27:22.693Z,0.55
2022-08-02T15:29:49.918Z,1.48
2022-08-02T15:32:19.435Z,0.80
2022-08-02T15:34:47.253Z,1.25
2022-08-02T15:37:14.079Z,1.00
2022-08-02T15:39:40.815Z,0.85
2022-08-02T15:42:07.742Z,0.50
2022-08-02T15:44:37.700Z,0.82
2022-08-02T15:47:07.890Z,0.50
2022-08-02T15:49:37.054Z,0.68
2022-08-02T15:52:07.641Z,1.40
2022-08-02T15:54:34.423Z,0.75
2022-08-02T15:57:01.170Z,0.70
2022-08-02T15:59:27.960Z,0.70
2022-08-02T16:01:54.792Z,1.00
2022-08-02T16:04:21.711Z,0.80
2022-08-02T16:06:48.568Z,0.80
2022-08-02T16:09:15.318Z,0.73
2022-08-02T16:11:44.374Z,0.80
2022-08-02T16:14:11.242Z,0.98
2022-08-02T16:16:40.239Z,0.82
2022-08-02T16:19:37.474Z,0.82
2022-08-02T16:21:56.183Z,0.82
2022-08-02T16:24:23.510Z,0.70
2022-08-02T16:26:50.303Z,0.90
2022-08-02T16:29:18.966Z,0.70
2022-08-02T16:31:48.217Z,0.70
2022-08-02T16:34:16.479Z,0.90
2022-08-02T16:36:43.876Z,0.68
2022-08-02T16:39:10.847Z,0.70
2022-08-02T16:41:51.036Z,0.65
2022-08-02T16:44:29.272Z,0.52
2022-08-02T16:47:00.933Z,1.00
2022-08-02T16:52:18.862Z,0.82
2022-08-02T16:57:43.312Z,0.60
2022-08-02T17:00:15.649Z,0.60
2022-08-02T17:02:43.247Z,0.70
2022-08-02T17:05:14.059Z,0.40
2022-08-02T17:08:07.208Z,0.80
2022-08-02T17:10:31.530Z,0.60
2022-08-02T17:16:16.322Z,0.70
2022-08-02T17:18:43.142Z,0.77
2022-08-02T17:21:18.412Z,3.08
2022-08-02T17:24:04.100Z,1.90
2022-08-02T17:26:32.110Z,3.35
2022-08-02T17:29:17.534Z,1.50
2022-08-02T17:32:05.894Z,1.00
2022-08-02T17:34:37.057Z,0.88
2022-08-02T17:37:06.344Z,0.98
2022-08-02T17:39:44.131Z,1.08
2022-08-02T17:42:19.805Z,0.95
2022-08-02T17:44:49.254Z,0.80
2022-08-02T17:47:18.742Z,0.60
2022-08-02T17:49:47.953Z,0.93
2022-08-02T17:52:51.597Z,0.60
2022-08-02T17:55:20.582Z,0.50
2022-08-02T17:57:57.640Z,0.90
2022-08-02T18:00:40.958Z,1.02
2022-08-02T18:03:12.309Z,0.63
2022-08-02T18:05:53.098Z,0.65
2022-08-02T18:08:23.995Z,0.60
2022-08-02T18:10:56.895Z,0.55
2022-08-02T18:13:24.685Z,0.70
2022-08-02T18:15:57.071Z,0.50
2022-08-02T18:18:29.386Z,0.88
2022-08-02T18:20:58.039Z,0.80
2022-08-02T18:23:24.917Z,1.02
2022-08-02T18:25:55.394Z,0.60
2022-08-02T18:28:26.719Z,0.70
2022-08-02T18:30:54.111Z,0.85
2022-08-02T18:33:59.848Z,1.50
2022-08-02T18:36:24.363Z,0.90
2022-08-02T18:38:52.115Z,0.90
2022-08-02T18:41:19.282Z,0.90
2022-08-02T18:43:48.525Z,0.55
2022-08-02T18:46:17.288Z,0.75
2022-08-02T18:48:47.892Z,1.08
2022-08-02T18:51:21.522Z,0.80
2022-08-02T18:53:53.857Z,0.88
2022-08-02T18:59:10.569Z,1.63
2022-08-02T19:01:46.890Z,0.70
2022-08-02T19:04:26.878Z,0.82
2022-08-02T19:06:55.622Z,1.23
2022-08-02T19:09:28.698Z,1.05
2022-08-02T19:12:13.433Z,0.70
2022-08-02T19:14:46.230Z,1.23
2022-08-02T19:17:55.391Z,1.05
2022-08-02T19:20:50.140Z,0.57
2022-08-02T19:23:58.894Z,0.80
2022-08-02T19:26:40.352Z,0.60
2022-08-02T19:29:53.363Z,0.55
2022-08-02T19:34:06.490Z,0.65
2022-08-02T19:38:06.596Z,0.60
2022-08-02T19:41:26.998Z,0.43
2022-08-02T19:44:54.295Z,0.60
2022-08-02T19:55:59.977Z,1.17
2022-08-02T19:58:18.317Z,0.47
2022-08-02T20:00:50.521Z,0.60
2022-08-02T20:03:19.093Z,1.20
2022-08-02T20:06:07.249Z,0.90
2022-08-02T20:08:37.486Z,0.60
2022-08-02T20:11:04.337Z,0.80
2022-08-02T20:13:34.678Z,0.80
2022-08-02T20:16:27.307Z,1.00
2022-08-02T20:18:56.408Z,0.60
2022-08-02T20:21:35.919Z,0.40
2022-08-02T20:24:07.229Z,0.70
2022-08-02T20:26:38.153Z,0.75
2022-08-02T20:29:05.257Z,0.73
2022-08-02T20:31:32.053Z,0.60
2022-08-02T20:33:58.975Z,0.80
2022-08-02T20:36:28.945Z,0.63
2022-08-02T20:38:55.969Z,0.80
2022-08-02T20:41:23.815Z,0.82
2022-08-02T20:44:05.700Z,0.57
2022-08-02T20:46:44.877Z,0.65
2022-08-02T20:49:21.583Z,0.55
2022-08-02T20:51:50.227Z,0.90
2022-08-02T20:54:17.025Z,0.70
2022-08-02T20:56:50.581Z,0.70
2022-08-02T20:59:17.572Z,0.50
2022-08-02T21:04:39.611Z,0.40
2022-08-02T21:07:07.988Z,0.60
2022-08-02T21:09:53.842Z,0.70
2022-08-02T21:12:22.048Z,1.00
2022-08-02T21:14:57.141Z,0.55
2022-08-02T21:17:43.337Z,0.75
2022-08-02T21:20:13.684Z,1.33
2022-08-02T21:22:44.700Z,0.95
2022-08-02T21:25:15.842Z,0.60
2022-08-02T21:27:52.622Z,0.80
2022-08-02T21:30:24.306Z,0.65
2022-08-02T21:32:54.555Z,0.40
2022-08-02T21:35:26.000Z,0.60
2022-08-02T21:37:58.159Z,0.50
2022-08-02T21:40:25.504Z,1.23
2022-08-02T21:42:53.984Z,0.60
2022-08-02T21:45:20.713Z,0.70
2022-08-02T21:47:50.498Z,0.60
2022-08-02T21:50:17.683Z,0.50
2022-08-02T21:52:51.069Z,0.63
2022-08-02T21:55:21.253Z,1.15
2022-08-02T21:57:51.624Z,0.43
2022-08-02T22:00:28.847Z,0.77
2022-08-02T22:02:56.210Z,0.55
2022-08-02T22:05:23.308Z,0.50
2022-08-02T22:07:50.585Z,0.70
2022-08-02T22:10:17.662Z,0.70
2022-08-02T22:12:44.952Z,0.65
2022-08-02T22:15:13.311Z,0.57
2022-08-02T22:17:50.713Z,0.70
2022-08-02T22:20:21.294Z,0.50
2022-08-02T22:22:53.333Z,0.50
2022-08-02T22:25:26.903Z,0.63
2022-08-02T22:28:37.217Z,0.80
2022-08-02T22:30:54.407Z,0.63
2022-08-02T22:33:47.167Z,0.63
2022-08-02T22:36:28.966Z,0.68
2022-08-02T22:38:55.839Z,0.90
2022-08-02T22:41:22.816Z,0.70
2022-08-02T22:43:50.300Z,0.70
2022-08-02T22:46:17.483Z,0.75
2022-08-02T22:48:45.510Z,0.55
2022-08-02T22:51:14.657Z,0.55
2022-08-02T22:53:45.718Z,0.57
2022-08-02T22:56:14.441Z,0.65
2022-08-02T22:58:49.135Z,0.80
2022-08-02T22:58:50.344Z,0.63
2022-08-02T22:58:50.938Z,0.60
2022-08-02T22:58:56.834Z,0.93
2022-08-02T22:58:57.244Z,1.00
2022-08-02T23:01:31.782Z,0.65
2022-08-02T23:03:58.608Z,0.45
2022-08-02T23:06:25.331Z,0.40
2022-08-02T23:08:52.051Z,0.50
2022-08-02T23:11:18.832Z,0.43
2022-08-02T23:13:45.567Z,0.65
2022-08-02T23:16:30.572Z,0.52
2022-08-02T23:19:15.935Z,0.70
2022-08-02T23:22:00.859Z,0.45
2022-08-02T23:24:29.001Z,0.75
2022-08-02T23:26:55.816Z,0.73
2022-08-02T23:29:22.564Z,0.50
2022-08-02T23:31:49.601Z,0.55
2022-08-02T23:34:17.384Z,0.47
2022-08-02T23:36:46.476Z,0.50
2022-08-02T23:39:13.342Z,0.60
2022-08-02T23:41:40.342Z,0.70
2022-08-02T23:44:15.230Z,0.50
2022-08-02T23:46:47.082Z,0.68
2022-08-02T23:49:19.677Z,0.70
2022-08-02T23:51:47.372Z,0.65
2022-08-02T23:54:14.424Z,0.52
2022-08-02T23:56:41.287Z,0.60
2022-08-02T23:59:11.089Z,1.98
